TimeAKST,TemperatureF,Dew PointF,Humidity,Sea Level PressureIn,VisibilityMPH,Wind Direction,Wind SpeedMPH,Gust SpeedMPH,PrecipitationIn,Events,Conditions,WindDirDegrees,DateUTC
12:16 AM,21.2,14.0,74,29.65,10.0,WSW,17.3,-,N/A,,Clear,250,2012-11-23 09:16:00
12:36 AM,21.2,14.0,74,29.64,10.0,WSW,16.1,-,N/A,,Scattered Clouds,240,2012-11-23 09:36:00
12:56 AM,23.0,15.8,74,29.64,10.0,WSW,12.7,19.6,N/A,,Mostly Cloudy,240,2012-11-23 09:56:00
1:16 AM,23.0,15.8,74,29.63,10.0,WSW,11.5,19.6,N/A,,Overcast,240,2012-11-23 10:16:00
1:36 AM,23.0,15.8,74,29.63,10.0,WSW,15.0,21.9,N/A,,Overcast,240,2012-11-23 10:36:00
1:56 AM,23.0,15.8,74,29.63,10.0,West,11.5,-,N/A,,Overcast,260,2012-11-23 10:56:00
2:16 AM,24.8,15.8,69,29.62,10.0,WSW,16.1,-,N/A,,Overcast,240,2012-11-23 11:16:00
2:36 AM,24.8,15.8,69,29.61,10.0,WSW,11.5,19.6,N/A,,Overcast,250,2012-11-23 11:36:00
3:16 AM,24.8,17.6,74,29.61,10.0,WSW,13.8,-,N/A,,Mostly Cloudy,240,2012-11-23 12:16:00
3:36 AM,24.8,17.6,74,29.61,10.0,WSW,16.1,20.7,N/A,,Overcast,240,2012-11-23 12:36:00
3:56 AM,24.8,17.6,74,29.62,10.0,West,11.5,20.7,N/A,,Overcast,270,2012-11-23 12:56:00
4:16 AM,24.8,15.8,69,29.61,10.0,West,11.5,18.4,N/A,,Overcast,270,2012-11-23 13:16:00
4:36 AM,24.8,15.8,69,29.61,10.0,WSW,17.3,21.9,N/A,,Overcast,250,2012-11-23 13:36:00
4:56 AM,24.8,15.8,69,29.61,10.0,West,17.3,20.7,N/A,,Overcast,260,2012-11-23 13:56:00
5:16 AM,24.8,17.6,74,29.61,10.0,WSW,16.1,20.7,N/A,,Overcast,250,2012-11-23 14:16:00
5:36 AM,24.8,15.8,69,29.60,10.0,West,13.8,21.9,N/A,,Overcast,260,2012-11-23 14:36:00
5:56 AM,24.8,15.8,69,29.60,10.0,WSW,10.4,23.0,N/A,,Overcast,250,2012-11-23 14:56:00
6:16 AM,24.8,15.8,69,29.61,10.0,West,16.1,-,N/A,,Overcast,260,2012-11-23 15:16:00
6:36 AM,24.8,15.8,69,29.61,10.0,West,11.5,-,N/A,,Overcast,260,2012-11-23 15:36:00
6:56 AM,24.8,15.8,69,29.61,10.0,West,12.7,18.4,N/A,,Overcast,260,2012-11-23 15:56:00
7:16 AM,24.8,15.8,69,29.61,10.0,WSW,12.7,17.3,N/A,,Overcast,250,2012-11-23 16:16:00
7:36 AM,24.8,15.8,69,29.62,10.0,WSW,13.8,19.6,N/A,,Overcast,250,2012-11-23 16:36:00
7:56 AM,24.8,15.8,69,29.62,10.0,West,9.2,-,N/A,,Overcast,270,2012-11-23 16:56:00
8:16 AM,24.8,15.8,69,29.62,10.0,West,11.5,-,N/A,,Overcast,260,2012-11-23 17:16:00
8:36 AM,24.8,15.8,69,29.62,10.0,West,12.7,-,N/A,,Overcast,270,2012-11-23 17:36:00
8:56 AM,24.8,15.8,69,29.63,10.0,West,10.4,-,N/A,,Overcast,270,2012-11-23 17:56:00
9:16 AM,24.8,15.8,69,29.63,10.0,West,11.5,-,N/A,,Overcast,260,2012-11-23 18:16:00
9:36 AM,24.8,15.8,69,29.64,10.0,WSW,11.5,-,N/A,,Overcast,250,2012-11-23 18:36:00
9:56 AM,24.8,15.8,69,29.64,10.0,West,11.5,-,N/A,,Overcast,260,2012-11-23 18:56:00
10:16 AM,24.8,15.8,69,29.65,10.0,West,12.7,-,N/A,,Overcast,270,2012-11-23 19:16:00
10:36 AM,24.8,15.8,69,29.65,10.0,WSW,11.5,-,N/A,,Overcast,240,2012-11-23 19:36:00
10:56 AM,24.8,15.8,69,29.66,10.0,West,10.4,-,N/A,,Overcast,260,2012-11-23 19:56:00
11:16 AM,24.8,14.0,64,29.67,10.0,WSW,8.1,-,N/A,,Overcast,250,2012-11-23 20:16:00
11:36 AM,24.8,14.0,64,29.67,10.0,WNW,9.2,-,N/A,,Overcast,290,2012-11-23 20:36:00
11:56 AM,24.8,12.2,59,29.67,10.0,West,8.1,-,N/A,,Overcast,260,2012-11-23 20:56:00
12:16 PM,24.8,14.0,64,29.67,10.0,West,11.5,16.1,N/A,,Overcast,260,2012-11-23 21:16:00
12:36 PM,24.8,14.0,64,29.67,10.0,West,10.4,-,N/A,,Overcast,280,2012-11-23 21:36:00
12:56 PM,24.8,14.0,64,29.67,10.0,West,11.5,-,N/A,,Overcast,270,2012-11-23 21:56:00
1:16 PM,24.8,14.0,64,29.67,10.0,West,11.5,-,N/A,,Overcast,270,2012-11-23 22:16:00
1:36 PM,24.8,14.0,64,29.67,10.0,West,11.5,-,N/A,,Overcast,260,2012-11-23 22:36:00
1:56 PM,24.8,14.0,64,29.66,10.0,West,8.1,-,N/A,,Overcast,270,2012-11-23 22:56:00
2:16 PM,24.8,12.2,59,29.67,10.0,West,12.7,17.3,N/A,,Overcast,270,2012-11-23 23:16:00
2:36 PM,24.8,12.2,59,29.66,10.0,West,12.7,-,N/A,,Overcast,260,2012-11-23 23:36:00
2:56 PM,24.8,12.2,59,29.66,10.0,West,6.9,-,N/A,,Overcast,270,2012-11-23 23:56:00
3:16 PM,24.8,12.2,59,29.66,10.0,WSW,10.4,16.1,N/A,,Scattered Clouds,250,2012-11-24 00:16:00
3:36 PM,24.8,12.2,59,29.67,10.0,WSW,9.2,-,N/A,,Scattered Clouds,250,2012-11-24 00:36:00
3:56 PM,24.8,15.8,69,29.67,10.0,SW,13.8,-,N/A,,Mostly Cloudy,230,2012-11-24 00:56:00
4:16 PM,24.8,15.8,69,29.68,10.0,SW,13.8,-,N/A,,Overcast,230,2012-11-24 01:16:00
4:36 PM,24.8,15.8,69,29.68,10.0,SW,15.0,-,N/A,,Overcast,230,2012-11-24 01:36:00
4:56 PM,24.8,14.0,64,29.69,10.0,SW,16.1,20.7,N/A,,Scattered Clouds,230,2012-11-24 01:56:00
5:16 PM,23.0,12.2,63,29.69,10.0,WSW,17.3,20.7,N/A,,Clear,240,2012-11-24 02:16:00
5:36 PM,21.2,12.2,68,29.70,10.0,SW,18.4,-,N/A,,Clear,230,2012-11-24 02:36:00
5:56 PM,21.2,12.2,68,29.71,10.0,WSW,15.0,-,N/A,,Clear,250,2012-11-24 02:56:00
6:16 PM,21.2,12.2,68,29.71,10.0,WSW,17.3,-,N/A,,Clear,240,2012-11-24 03:16:00
6:36 PM,21.2,12.2,68,29.71,10.0,WSW,18.4,-,N/A,,Clear,250,2012-11-24 03:36:00
6:56 PM,19.4,10.4,68,29.71,10.0,WSW,17.3,-,N/A,,Clear,240,2012-11-24 03:56:00
7:16 PM,19.4,10.4,68,29.73,10.0,SW,17.3,23.0,N/A,,Clear,230,2012-11-24 04:16:00
7:36 PM,19.4,12.2,74,29.72,10.0,WSW,19.6,24.2,N/A,,Partly Cloudy,250,2012-11-24 04:36:00
7:56 PM,19.4,10.4,68,29.73,10.0,WSW,18.4,24.2,N/A,,Clear,250,2012-11-24 04:56:00
8:16 PM,19.4,10.4,68,29.74,10.0,West,12.7,20.7,N/A,,Clear,260,2012-11-24 05:16:00
8:36 PM,19.4,12.2,74,29.74,10.0,WSW,11.5,-,N/A,,Clear,250,2012-11-24 05:36:00
8:56 PM,19.4,10.4,68,29.74,10.0,WSW,11.5,20.7,N/A,,Clear,250,2012-11-24 05:56:00
9:16 PM,19.4,10.4,68,29.74,10.0,West,9.2,-,N/A,,Clear,260,2012-11-24 06:16:00
9:36 PM,19.4,10.4,68,29.75,10.0,WSW,12.7,18.4,N/A,,Clear,250,2012-11-24 06:36:00
9:56 PM,19.4,10.4,68,29.75,10.0,WSW,16.1,20.7,N/A,,Clear,240,2012-11-24 06:56:00
10:16 PM,19.4,10.4,68,29.75,10.0,WSW,15.0,-,N/A,,Clear,240,2012-11-24 07:16:00
10:36 PM,19.4,10.4,68,29.76,10.0,WSW,16.1,23.0,N/A,,Clear,240,2012-11-24 07:36:00
10:56 PM,19.4,8.6,63,29.77,10.0,WSW,11.5,18.4,N/A,,Clear,250,2012-11-24 07:56:00
11:16 PM,19.4,8.6,63,29.78,10.0,WSW,12.7,20.7,N/A,,Clear,240,2012-11-24 08:16:00
11:36 PM,19.4,8.6,63,29.78,10.0,WSW,15.0,19.6,N/A,,Clear,240,2012-11-24 08:36:00
11:56 PM,19.4,8.6,63,29.78,10.0,WSW,12.7,19.6,N/A,,Clear,250,2012-11-24 08:56:00